createdAt,value
2023-01-29T00:00:42.624Z,10.35
2023-01-29T00:03:09.156Z,9.77
2023-01-29T00:05:35.867Z,11.65
2023-01-29T00:08:02.394Z,9.55
2023-01-29T00:10:28.910Z,10.20
2023-01-29T00:12:55.468Z,9.35
2023-01-29T00:15:21.967Z,12.15
2023-01-29T00:17:48.528Z,9.70
2023-01-29T00:20:15.897Z,10.27
2023-01-29T00:22:42.505Z,10.52
2023-01-29T00:25:09.586Z,10.05
2023-01-29T00:27:36.076Z,8.82
2023-01-29T00:30:22.859Z,10.15
2023-01-29T00:32:49.381Z,9.73
2023-01-29T00:35:15.962Z,9.55
2023-01-29T00:37:42.488Z,10.40
2023-01-29T00:40:09.852Z,9.18
2023-01-29T00:42:55.171Z,8.70
2023-01-29T00:45:21.662Z,8.27
2023-01-29T00:47:48.173Z,9.77
2023-01-29T00:50:14.939Z,7.75
2023-01-29T00:52:41.706Z,9.95
2023-01-29T00:55:09.835Z,9.20
2023-01-29T00:57:38.064Z,8.55
2023-01-29T01:00:08.873Z,9.30
2023-01-29T01:02:53.984Z,8.48
2023-01-29T01:05:20.747Z,9.25
2023-01-29T01:07:49.390Z,9.00
2023-01-29T01:10:22.260Z,10.30
2023-01-29T01:12:59.152Z,8.50
2023-01-29T01:15:32.034Z,9.57
2023-01-29T01:18:00.335Z,7.97
2023-01-29T01:20:29.762Z,8.27
2023-01-29T01:22:57.193Z,7.68
2023-01-29T01:25:25.364Z,6.50
2023-01-29T01:27:56.525Z,8.32
2023-01-29T01:30:23.982Z,7.53
2023-01-29T01:32:50.766Z,6.93
2023-01-29T01:35:18.016Z,8.13
2023-01-29T01:37:44.597Z,7.75
2023-01-29T01:40:18.214Z,7.55
2023-01-29T01:42:51.496Z,6.70
2023-01-29T01:45:26.105Z,6.30
2023-01-29T01:47:58.988Z,6.38
2023-01-29T01:50:42.900Z,7.23
2023-01-29T01:53:13.180Z,6.55
2023-01-29T01:55:48.625Z,7.18
2023-01-29T01:58:25.327Z,6.25
2023-01-29T02:00:52.357Z,7.07
2023-01-29T02:03:41.235Z,6.80
2023-01-29T02:06:27.628Z,6.03
2023-01-29T02:09:17.095Z,6.03
2023-01-29T02:11:43.607Z,6.65
2023-01-29T02:14:11.619Z,6.32
2023-01-29T02:16:38.427Z,7.70
2023-01-29T02:19:15.158Z,6.18
2023-01-29T02:21:44.560Z,7.30
2023-01-29T02:24:29.382Z,5.75
2023-01-29T02:27:10.310Z,6.18
2023-01-29T02:29:55.360Z,7.28
2023-01-29T02:32:41.257Z,6.60
2023-01-29T02:35:28.935Z,6.22
2023-01-29T02:38:01.478Z,6.30
2023-01-29T02:40:40.378Z,5.72
2023-01-29T02:43:47.382Z,5.63
2023-01-29T02:46:34.434Z,6.32
2023-01-29T02:49:20.523Z,5.85
2023-01-29T02:51:55.701Z,6.40
2023-01-29T02:54:29.208Z,6.00
2023-01-29T02:56:59.583Z,5.85
2023-01-29T02:59:35.597Z,6.32
2023-01-29T03:02:17.798Z,6.18
2023-01-29T03:04:50.778Z,7.50
2023-01-29T03:07:44.480Z,6.38
2023-01-29T03:10:21.625Z,5.95
2023-01-29T03:13:02.031Z,5.75
2023-01-29T03:15:38.894Z,7.65
2023-01-29T03:18:11.365Z,5.32
2023-01-29T03:20:48.343Z,6.47
2023-01-29T03:23:23.797Z,6.13
2023-01-29T03:26:13.670Z,6.25
2023-01-29T03:29:00.452Z,6.65
2023-01-29T03:31:46.452Z,7.05
2023-01-29T03:34:24.001Z,6.00
2023-01-29T03:37:01.546Z,7.13
2023-01-29T03:39:29.374Z,6.72
2023-01-29T03:42:04.784Z,6.55
2023-01-29T03:45:02.237Z,6.80
2023-01-29T03:47:47.343Z,8.38
2023-01-29T03:50:42.272Z,7.07
2023-01-29T03:53:34.309Z,7.25
2023-01-29T03:56:27.378Z,6.47
2023-01-29T03:59:18.529Z,7.88
2023-01-29T04:01:51.943Z,6.70
2023-01-29T04:04:26.829Z,7.18
2023-01-29T04:06:57.711Z,9.02
2023-01-29T04:09:31.538Z,6.50
2023-01-29T04:14:34.013Z,7.45
2023-01-29T04:17:08.103Z,7.20
2023-01-29T04:19:35.374Z,8.98
2023-01-29T04:22:19.026Z,8.93
2023-01-29T04:24:46.372Z,7.88
2023-01-29T04:27:34.386Z,7.53
2023-01-29T04:30:21.055Z,7.78
2023-01-29T04:32:59.788Z,8.18
2023-01-29T04:35:29.405Z,7.65
2023-01-29T04:38:14.700Z,7.47
2023-01-29T04:40:53.376Z,7.45
2023-01-29T04:43:32.329Z,8.10
2023-01-29T04:46:19.696Z,6.95
2023-01-29T04:48:56.919Z,7.53
2023-01-29T04:51:45.008Z,7.25
2023-01-29T04:54:26.240Z,8.50
2023-01-29T04:57:25.830Z,7.97
2023-01-29T05:00:08.572Z,8.20
2023-01-29T05:02:41.105Z,8.00
2023-01-29T05:05:09.086Z,8.15
2023-01-29T05:07:38.496Z,7.78
2023-01-29T05:10:08.233Z,8.63
2023-01-29T05:12:37.371Z,8.90
2023-01-29T05:15:09.968Z,7.55
2023-01-29T05:17:36.531Z,7.15
2023-01-29T05:20:03.516Z,6.93
2023-01-29T05:22:30.590Z,8.00
2023-01-29T05:24:57.102Z,6.18
2023-01-29T05:27:50.165Z,6.55
2023-01-29T05:30:17.141Z,6.68
2023-01-29T05:32:43.870Z,6.75
2023-01-29T05:35:10.473Z,6.25
2023-01-29T05:37:37.011Z,7.18
2023-01-29T05:40:04.151Z,7.40
2023-01-29T05:42:30.913Z,8.13
2023-01-29T05:44:57.411Z,7.35
2023-01-29T05:47:23.925Z,8.20
2023-01-29T05:49:50.386Z,6.90
2023-01-29T05:52:16.885Z,7.85
2023-01-29T05:54:43.820Z,8.98
2023-01-29T05:57:10.367Z,10.18
2023-01-29T05:59:36.947Z,8.82
2023-01-29T06:02:03.495Z,8.00
2023-01-29T06:04:30.048Z,8.23
2023-01-29T06:06:56.582Z,8.85
2023-01-29T06:09:23.061Z,8.00
2023-01-29T06:11:49.556Z,8.80
2023-01-29T06:14:16.109Z,7.63
2023-01-29T06:16:42.612Z,7.57
2023-01-29T06:19:09.089Z,9.27
2023-01-29T06:21:35.572Z,9.27
2023-01-29T06:24:02.191Z,7.53
2023-01-29T06:26:28.718Z,9.68
2023-01-29T06:28:55.541Z,8.23
2023-01-29T06:31:37.432Z,9.52
2023-01-29T06:34:05.109Z,8.68
2023-01-29T06:36:31.617Z,8.20
2023-01-29T06:38:58.167Z,9.25
2023-01-29T06:41:25.593Z,10.75
2023-01-29T06:43:52.291Z,8.23
2023-01-29T06:46:18.793Z,9.55
2023-01-29T06:48:45.282Z,8.48
2023-01-29T06:51:11.895Z,9.73
2023-01-29T06:53:39.456Z,11.70
2023-01-29T06:56:06.976Z,11.15
2023-01-29T06:58:33.955Z,8.80
2023-01-29T07:01:13.883Z,9.90
2023-01-29T07:03:51.862Z,9.02
2023-01-29T07:06:18.841Z,8.45
2023-01-29T07:08:45.769Z,8.43
2023-01-29T07:11:12.963Z,10.40
2023-01-29T07:13:39.462Z,11.25
2023-01-29T07:16:07.029Z,8.90
2023-01-29T07:18:33.638Z,9.77
2023-01-29T07:21:04.919Z,8.25
2023-01-29T07:23:31.429Z,9.40
2023-01-29T07:26:01.999Z,8.10
2023-01-29T07:28:28.771Z,9.77
2023-01-29T07:30:59.228Z,10.00
2023-01-29T07:33:26.380Z,7.80
2023-01-29T07:35:53.479Z,9.25
2023-01-29T07:38:20.037Z,8.68
2023-01-29T07:40:46.761Z,8.70
2023-01-29T07:43:13.433Z,10.23
2023-01-29T07:45:40.531Z,9.23
2023-01-29T07:48:10.877Z,7.63
2023-01-29T07:50:37.883Z,8.98
2023-01-29T07:53:04.576Z,7.65
2023-01-29T07:55:31.511Z,9.13
2023-01-29T07:58:03.076Z,9.80
2023-01-29T08:00:31.476Z,9.60
2023-01-29T08:03:06.502Z,8.40
2023-01-29T08:05:33.784Z,8.95
2023-01-29T08:08:06.408Z,9.18
2023-01-29T08:10:37.920Z,11.40
2023-01-29T08:13:06.158Z,8.73
2023-01-29T08:15:36.621Z,8.35
2023-01-29T08:18:04.815Z,11.15
2023-01-29T08:20:31.382Z,10.10
2023-01-29T08:23:02.873Z,8.05
2023-01-29T08:25:30.272Z,10.95
2023-01-29T08:27:58.233Z,9.93
2023-01-29T08:30:26.711Z,7.68
2023-01-29T08:32:53.326Z,9.57
2023-01-29T08:35:20.284Z,10.20
2023-01-29T08:37:59.429Z,10.10
2023-01-29T08:40:27.318Z,9.45
2023-01-29T08:43:01.506Z,7.75
2023-01-29T08:45:28.865Z,8.10
2023-01-29T08:47:55.603Z,9.57
2023-01-29T08:50:22.210Z,9.48
2023-01-29T08:52:48.701Z,8.35
2023-01-29T08:55:15.632Z,10.65
2023-01-29T08:57:42.434Z,9.05
2023-01-29T09:00:10.303Z,9.40
2023-01-29T09:02:37.270Z,9.43
2023-01-29T09:05:04.021Z,7.22
2023-01-29T09:07:30.560Z,10.27
2023-01-29T09:09:57.210Z,8.63
2023-01-29T09:12:23.826Z,9.45
2023-01-29T09:14:50.353Z,9.25
2023-01-29T09:17:17.202Z,9.45
2023-01-29T09:19:43.675Z,10.38
2023-01-29T09:22:11.910Z,9.43
2023-01-29T09:24:38.670Z,9.85
2023-01-29T09:27:06.180Z,8.70
2023-01-29T09:29:35.657Z,10.43
2023-01-29T09:32:03.586Z,9.25
2023-01-29T09:34:30.204Z,11.02
2023-01-29T09:36:56.738Z,8.00
2023-01-29T09:39:23.243Z,7.50
2023-01-29T09:42:24.706Z,9.57
2023-01-29T09:45:10.711Z,10.05
2023-01-29T09:47:37.437Z,11.20
2023-01-29T09:50:26.116Z,9.48
2023-01-29T09:53:11.504Z,11.52
2023-01-29T09:55:45.675Z,9.52
2023-01-29T09:58:38.588Z,10.50
2023-01-29T10:01:23.149Z,7.45
2023-01-29T10:04:19.537Z,10.57
2023-01-29T10:07:10.268Z,9.02
2023-01-29T10:09:53.829Z,10.02
2023-01-29T10:12:37.815Z,10.00
2023-01-29T10:15:33.313Z,11.45
2023-01-29T10:18:31.636Z,10.98
2023-01-29T10:21:07.051Z,11.45
2023-01-29T10:23:37.802Z,10.73
2023-01-29T10:26:04.346Z,11.02
2023-01-29T10:28:46.601Z,9.40
2023-01-29T10:31:27.837Z,8.73
2023-01-29T10:34:02.961Z,10.38
2023-01-29T10:36:38.461Z,11.35
2023-01-29T10:39:05.078Z,10.07
2023-01-29T10:41:41.051Z,10.90
2023-01-29T10:44:24.550Z,10.55
2023-01-29T10:47:15.801Z,14.55
2023-01-29T10:50:39.476Z,13.32
2023-01-29T10:53:23.929Z,10.85
2023-01-29T10:56:25.729Z,11.57
2023-01-29T10:59:08.214Z,11.20
2023-01-29T11:01:34.898Z,12.68
2023-01-29T11:04:04.266Z,12.23
2023-01-29T11:06:35.448Z,10.35
2023-01-29T11:09:14.148Z,11.27
2023-01-29T11:11:48.895Z,10.35
2023-01-29T11:14:22.760Z,10.00
2023-01-29T11:16:49.459Z,10.32
2023-01-29T11:19:16.831Z,11.38
2023-01-29T11:22:01.223Z,11.93
2023-01-29T11:24:28.630Z,13.55
2023-01-29T11:26:58.721Z,10.50
2023-01-29T11:29:57.540Z,8.65
2023-01-29T11:32:23.975Z,11.00
2023-01-29T11:34:57.365Z,13.48
2023-01-29T11:37:31.262Z,12.90
2023-01-29T11:39:57.853Z,9.77
2023-01-29T11:42:24.579Z,12.15
2023-01-29T11:44:51.098Z,11.38
2023-01-29T11:47:20.791Z,11.20
2023-01-29T11:49:59.087Z,13.10
2023-01-29T11:52:34.920Z,13.10
2023-01-29T11:55:05.678Z,10.52
2023-01-29T11:57:34.218Z,11.82
2023-01-29T12:00:19.126Z,12.13
2023-01-29T12:02:53.024Z,11.98
2023-01-29T12:05:22.910Z,11.73
2023-01-29T12:07:56.562Z,10.85
2023-01-29T12:10:36.178Z,10.82
2023-01-29T12:13:12.009Z,11.52
2023-01-29T12:15:40.181Z,10.80
2023-01-29T12:18:12.529Z,11.57
2023-01-29T12:20:55.153Z,10.90
2023-01-29T12:23:36.691Z,14.43
2023-01-29T12:26:03.514Z,12.35
2023-01-29T12:28:41.378Z,11.60
2023-01-29T12:31:38.478Z,11.60
2023-01-29T12:34:34.784Z,11.90
2023-01-29T12:37:12.270Z,10.07
2023-01-29T12:39:38.846Z,12.52
2023-01-29T12:42:16.527Z,12.38
2023-01-29T12:45:05.257Z,10.82
2023-01-29T12:48:05.301Z,11.80
2023-01-29T12:50:38.507Z,9.82
2023-01-29T12:53:29.051Z,13.57
2023-01-29T12:56:02.356Z,14.25
2023-01-29T12:58:45.183Z,12.93
2023-01-29T13:01:22.099Z,12.35
2023-01-29T13:03:57.475Z,12.82
2023-01-29T13:06:30.544Z,12.82
2023-01-29T13:09:01.709Z,13.82
2023-01-29T13:12:14.852Z,12.55
2023-01-29T13:14:51.999Z,15.05
2023-01-29T13:17:26.640Z,15.00
2023-01-29T13:19:58.105Z,14.13
2023-01-29T13:22:27.630Z,13.20
2023-01-29T13:25:04.119Z,13.95
2023-01-29T13:27:34.281Z,17.73
2023-01-29T13:30:01.573Z,12.77
2023-01-29T13:32:30.458Z,12.93
2023-01-29T13:35:01.007Z,14.80
2023-01-29T13:37:34.318Z,14.77
2023-01-29T13:40:02.833Z,13.23
2023-01-29T13:42:49.641Z,19.75
2023-01-29T13:45:25.854Z,15.13
2023-01-29T13:47:53.299Z,14.25
2023-01-29T13:50:37.374Z,13.35
2023-01-29T13:55:35.001Z,15.02
2023-01-29T13:58:37.839Z,14.98
2023-01-29T14:01:04.808Z,15.77
2023-01-29T14:03:40.035Z,13.27
2023-01-29T14:06:39.262Z,13.93
2023-01-29T14:09:32.849Z,14.43
2023-01-29T14:11:59.905Z,13.93
2023-01-29T14:15:04.361Z,17.92
2023-01-29T14:17:31.033Z,14.93
2023-01-29T14:20:19.114Z,16.40
2023-01-29T14:22:56.579Z,15.48
2023-01-29T14:25:29.813Z,13.10
2023-01-29T14:27:58.766Z,16.23
2023-01-29T14:30:27.743Z,14.05
2023-01-29T14:32:54.955Z,14.02
2023-01-29T14:35:25.542Z,12.38
2023-01-29T14:37:57.717Z,12.77
2023-01-29T14:40:26.698Z,14.10
2023-01-29T14:43:04.571Z,11.25
2023-01-29T14:45:35.282Z,12.20
2023-01-29T14:48:10.818Z,10.73
2023-01-29T14:50:37.786Z,11.65
2023-01-29T14:53:27.543Z,12.18
2023-01-29T14:56:12.547Z,13.45
2023-01-29T14:58:44.968Z,13.13
2023-01-29T15:01:38.768Z,11.48
2023-01-29T15:04:27.318Z,9.80
2023-01-29T15:07:04.704Z,13.98
2023-01-29T15:09:43.240Z,11.98
2023-01-29T15:12:31.390Z,11.20
2023-01-29T15:15:33.298Z,12.60
2023-01-29T15:18:04.826Z,12.05
2023-01-29T15:20:40.262Z,13.07
2023-01-29T15:23:26.974Z,11.48
2023-01-29T15:25:57.710Z,15.38
2023-01-29T15:28:24.367Z,14.55
2023-01-29T15:30:55.230Z,11.95
2023-01-29T15:33:21.967Z,12.40
2023-01-29T15:35:51.669Z,13.98
2023-01-29T15:38:22.672Z,14.23
2023-01-29T15:41:03.171Z,13.50
2023-01-29T15:43:35.305Z,12.15
2023-01-29T15:46:04.831Z,13.02
2023-01-29T15:48:43.499Z,11.98
2023-01-29T15:51:22.701Z,13.93
2023-01-29T15:53:53.406Z,12.07
2023-01-29T15:56:28.153Z,14.88
2023-01-29T15:58:56.720Z,10.90
2023-01-29T16:01:26.538Z,12.13
2023-01-29T16:03:54.125Z,11.75
2023-01-29T16:06:22.162Z,11.73
2023-01-29T16:08:53.591Z,12.68
2023-01-29T16:11:20.903Z,12.13
2023-01-29T16:13:49.894Z,10.15
2023-01-29T16:16:16.449Z,9.88
2023-01-29T16:18:58.990Z,13.20
2023-01-29T16:21:28.950Z,13.70
2023-01-29T16:23:58.804Z,13.05
2023-01-29T16:26:29.124Z,12.10
2023-01-29T16:28:56.000Z,12.55
2023-01-29T16:31:28.145Z,14.45
2023-01-29T16:33:57.711Z,12.90
2023-01-29T16:36:26.883Z,13.60
2023-01-29T16:39:02.017Z,11.98
2023-01-29T16:41:31.676Z,14.60
2023-01-29T16:44:27.841Z,13.90
2023-01-29T16:46:54.563Z,15.90
2023-01-29T16:49:26.823Z,13.20
2023-01-29T16:51:54.605Z,11.48
2023-01-29T16:54:24.755Z,13.15
2023-01-29T16:56:54.754Z,14.38
2023-01-29T16:59:36.734Z,13.05
2023-01-29T17:02:04.237Z,11.88
2023-01-29T17:04:30.779Z,12.35
2023-01-29T17:07:00.472Z,13.45
2023-01-29T17:09:33.718Z,13.07
2023-01-29T17:12:05.388Z,12.65
2023-01-29T17:14:34.316Z,14.25
2023-01-29T17:17:07.832Z,13.95
2023-01-29T17:19:34.393Z,15.10
2023-01-29T17:22:04.605Z,14.85
2023-01-29T17:24:31.624Z,14.52
2023-01-29T17:26:58.200Z,16.17
2023-01-29T17:29:29.170Z,16.60
2023-01-29T17:31:56.128Z,16.85
2023-01-29T17:34:24.039Z,17.40
2023-01-29T17:36:50.529Z,19.70
2023-01-29T17:39:19.085Z,18.20
2023-01-29T17:41:53.941Z,16.77
2023-01-29T17:44:21.000Z,15.20
2023-01-29T17:46:48.148Z,18.33
2023-01-29T17:49:29.331Z,19.65
2023-01-29T17:51:57.044Z,18.92
2023-01-29T17:54:24.257Z,18.45
2023-01-29T17:56:51.760Z,17.23
2023-01-29T17:59:21.093Z,23.90
2023-01-29T18:01:48.358Z,16.40
2023-01-29T18:04:15.608Z,19.63
2023-01-29T18:06:43.726Z,19.65
2023-01-29T18:09:15.403Z,16.88
2023-01-29T18:11:42.741Z,15.70
2023-01-29T18:14:14.009Z,19.98
2023-01-29T18:16:42.476Z,14.95
2023-01-29T18:19:20.845Z,18.25
2023-01-29T18:21:48.178Z,18.35
2023-01-29T18:24:15.158Z,15.98
2023-01-29T18:26:41.992Z,17.65
2023-01-29T18:29:08.700Z,16.38
2023-01-29T18:31:35.294Z,17.15
2023-01-29T18:34:01.831Z,17.38
2023-01-29T18:36:28.868Z,18.70
2023-01-29T18:38:57.738Z,16.45
2023-01-29T18:41:24.308Z,17.42
2023-01-29T18:43:52.714Z,16.77
2023-01-29T18:46:19.837Z,17.13
2023-01-29T18:48:46.369Z,21.80
2023-01-29T18:51:12.931Z,16.90
2023-01-29T18:53:39.460Z,15.15
2023-01-29T18:56:06.797Z,16.80
2023-01-29T18:58:35.940Z,19.38
2023-01-29T19:01:09.153Z,15.70
2023-01-29T19:03:36.742Z,17.13
2023-01-29T19:06:05.561Z,16.05
2023-01-29T19:08:33.157Z,16.30
2023-01-29T19:11:02.433Z,16.90
2023-01-29T19:13:30.103Z,13.80
2023-01-29T19:15:56.760Z,17.27
2023-01-29T19:18:25.905Z,17.35
2023-01-29T19:20:53.346Z,15.43
2023-01-29T19:23:20.440Z,14.63
2023-01-29T19:25:47.005Z,16.02
2023-01-29T19:28:13.555Z,14.18
2023-01-29T19:30:40.131Z,18.73
2023-01-29T19:33:06.713Z,13.82
2023-01-29T19:35:33.520Z,13.45
2023-01-29T19:38:01.141Z,13.95
2023-01-29T19:40:27.798Z,14.65
2023-01-29T19:42:55.669Z,13.88
2023-01-29T19:45:49.234Z,12.30
2023-01-29T19:48:14.469Z,14.27
2023-01-29T19:50:41.163Z,15.52
2023-01-29T19:53:07.713Z,12.73
2023-01-29T19:55:34.234Z,15.70
2023-01-29T19:58:00.795Z,13.23
2023-01-29T20:00:27.353Z,12.18
2023-01-29T20:02:53.900Z,12.35
2023-01-29T20:05:20.675Z,13.82
2023-01-29T20:07:47.351Z,12.07
2023-01-29T20:10:17.247Z,13.23
2023-01-29T20:12:45.578Z,10.93
2023-01-29T20:15:13.308Z,14.10
2023-01-29T20:17:39.956Z,13.00
2023-01-29T20:20:06.918Z,12.10
2023-01-29T20:22:33.591Z,16.23
2023-01-29T20:25:00.128Z,12.38
2023-01-29T20:27:26.670Z,12.52
2023-01-29T20:29:53.201Z,14.27
2023-01-29T20:32:19.842Z,13.23
2023-01-29T20:34:51.831Z,12.18
2023-01-29T20:37:19.333Z,12.55
2023-01-29T20:39:45.935Z,16.02
2023-01-29T20:42:12.728Z,12.55
2023-01-29T20:44:39.248Z,13.45
2023-01-29T20:47:05.769Z,14.38
2023-01-29T20:49:32.312Z,12.32
2023-01-29T20:51:58.792Z,13.40
2023-01-29T20:54:25.365Z,14.00
2023-01-29T20:56:52.078Z,12.30
2023-01-29T20:59:18.821Z,12.98
2023-01-29T21:01:45.826Z,13.65
2023-01-29T21:04:12.336Z,14.25
2023-01-29T21:06:38.901Z,11.40
2023-01-29T21:09:05.472Z,12.43
2023-01-29T21:11:33.704Z,13.18
2023-01-29T21:14:01.786Z,14.50
2023-01-29T21:16:28.424Z,12.00
2023-01-29T21:18:58.618Z,12.55
2023-01-29T21:21:26.563Z,12.32
2023-01-29T21:23:53.156Z,13.45
2023-01-29T21:26:19.865Z,16.40
2023-01-29T21:28:46.393Z,13.95
2023-01-29T21:31:15.007Z,14.02
2023-01-29T21:33:41.854Z,12.75
2023-01-29T21:36:10.015Z,13.80
2023-01-29T21:38:36.669Z,14.00
2023-01-29T21:41:05.960Z,15.98
2023-01-29T21:43:32.918Z,15.90
2023-01-29T21:46:02.394Z,13.18
2023-01-29T21:48:28.994Z,15.35
2023-01-29T21:50:55.578Z,17.70
2023-01-29T21:53:22.452Z,17.75
2023-01-29T21:55:48.997Z,14.32
2023-01-29T21:58:15.487Z,13.88
2023-01-29T22:00:42.073Z,17.63
2023-01-29T22:03:08.640Z,16.52
2023-01-29T22:05:35.269Z,16.55
2023-01-29T22:08:02.475Z,13.77
2023-01-29T22:10:30.565Z,13.85
2023-01-29T22:12:59.766Z,16.27
2023-01-29T22:15:26.398Z,16.55
2023-01-29T22:17:52.972Z,16.00
2023-01-29T22:20:20.169Z,16.38
2023-01-29T22:22:46.900Z,14.95
2023-01-29T22:25:13.488Z,17.80
2023-01-29T22:27:40.037Z,16.40
2023-01-29T22:30:07.368Z,16.65
2023-01-29T22:32:33.999Z,18.92
2023-01-29T22:35:00.608Z,17.80
2023-01-29T22:37:27.466Z,14.98
2023-01-29T22:39:54.024Z,13.07
2023-01-29T22:42:20.896Z,15.40
2023-01-29T22:44:48.597Z,13.65
2023-01-29T22:47:15.476Z,16.27
2023-01-29T22:49:42.103Z,13.15
2023-01-29T22:52:11.558Z,14.35
2023-01-29T22:54:43.012Z,13.50
2023-01-29T22:57:11.857Z,12.13
2023-01-29T22:59:38.672Z,13.30
2023-01-29T23:02:06.160Z,15.40
2023-01-29T23:04:32.726Z,11.93
2023-01-29T23:06:59.512Z,13.30
2023-01-29T23:09:26.040Z,12.40
2023-01-29T23:11:52.551Z,14.77
2023-01-29T23:14:19.310Z,11.80
2023-01-29T23:16:45.841Z,14.32
2023-01-29T23:19:12.428Z,13.63
2023-01-29T23:21:39.781Z,12.05
2023-01-29T23:24:07.595Z,14.18
2023-01-29T23:26:52.773Z,14.57
2023-01-29T23:29:19.407Z,10.95
2023-01-29T23:31:46.185Z,12.43
2023-01-29T23:34:13.707Z,12.60
2023-01-29T23:36:40.268Z,14.82
2023-01-29T23:39:06.793Z,11.43
2023-01-29T23:41:33.432Z,15.98
2023-01-29T23:43:59.933Z,14.57
2023-01-29T23:46:26.508Z,12.68
2023-01-29T23:48:53.080Z,10.88
2023-01-29T23:51:19.598Z,12.10
2023-01-29T23:53:46.121Z,9.90
2023-01-29T23:56:12.856Z,10.80
2023-01-29T23:58:39.501Z,12.05
